Moab, UT

9:33 PM MDT on October 21, 2014 (GMT -0600)
Canyonlands | Change Station
CLOSE
Current Station
Airport
Location: Moab,
Elevation: 4554 ft
Nearby Weather Stations

Elev 4554 ft 38.75 °N, 109.76 °W | Updated 40 minutes ago

Partly Cloudy
Partly Cloudy
64 °F
Feels Like 64 °F
N
9
Wind Variable Wind from SW

Today
High -- | Low -- °F
--% Chance of Precip.
Yesterday
High -- | Low -- °F
Precip. -- in
7:34 AM 6:32 PM
Waning Crescent, 3% visible
Pressure 29.78 in
Visibility 10.0 miles
Clouds Scattered Clouds 10000 ft
Dew Point 33 °F
Humidity 31%
Rainfall 0.00 in
Snow Depth Not available.
UV 0 out of 12
Pollen 1.90 out of 12
Air Quality Not available.
Flu Activity Sporadic
METAR KCNY 220253Z AUTO 22008KT 10SM SCT100 18/01 A2990 RMK AO2 LTG DSNT N SLP084 T01780006 51009

More Conditions Fewer Conditions

Pressure 29.78 in
Visibility 10.0 miles
Clouds Scattered Clouds 10000 ft
Dew Point 33 °F
Humidity 31%
Rainfall 0.00 in
Snow Depth Not available.
UV 0 out of 12
Pollen 1.90 out of 12
Air Quality Not available.
Flu Activity Sporadic
METAR KCNY 220253Z AUTO 22008KT 10SM SCT100 18/01 A2990 RMK AO2 LTG DSNT N SLP084 T01780006 51009

More Conditions Fewer Conditions

10-Day Weather Forecast

Almanac

Astronomy

Oct. 21, 2014 Rise Set
Actual Time 7:34 AM MDT 6:32 PM MDT
Civil Twilight 7:07 AM MDT 6:59 PM MDT
Nautical Twilight 6:36 AM MDT 7:30 PM MDT
Astronomical Twilight 6:05 AM MDT 8:00 PM MDT
Moon 5:23 AM MDT (10/21) 5:26 PM MDT (10/21)
Length of Visible Light 11h 51m
Length of Day
10h 57m
Tomorrow will be 2m 21s shorter.
Waning Crescent, 3% of the Moon is Illuminated
Today
Waning Crescent
Oct 23
New
Oct 30
First Quarter
Nov 6
Full
Nov 14
Last Quarter

Today's Extremes

State Highs State Lows

Community

WunderPhotos

Upload Photos

1,763,874 photos uploaded!

Nearby

Snow Depth

Station Depth Elevation
Camp Jackson 0 in 8600 ft
Red Pine Ridge 0 in 9200 ft
Seeley Creek 0 in 10000 ft
Black Flat-U.M. Creek 0 in 9400 ft
Gooseberry R.S. 0 in 7920 ft

Earthquake Activity

City Distance Mag. Time & Date
No recent earthquake activity has been reported nearby.
Minimum magnitude displayed is 2.5.

Coastal Water Temperatures

Place Temperature
No Stations Reporting

Nearby Weather Stations